sensor_id;sensor_type;location;lat;lon;timestamp;temperature;humidity
18225;DHT22;9237;48.590;8.854;2023-09-08T00:02:23;14.40;99.90
18225;DHT22;9237;48.590;8.854;2023-09-08T00:04:49;14.30;99.90
18225;DHT22;9237;48.590;8.854;2023-09-08T00:07:16;14.20;99.90
18225;DHT22;9237;48.590;8.854;2023-09-08T00:09:43;14.10;99.90
18225;DHT22;9237;48.590;8.854;2023-09-08T00:12:10;14.00;99.90
18225;DHT22;9237;48.590;8.854;2023-09-08T00:14:36;14.00;99.90
18225;DHT22;9237;48.590;8.854;2023-09-08T00:17:04;13.90;99.90
18225;DHT22;9237;48.590;8.854;2023-09-08T00:19:31;13.90;99.90
18225;DHT22;9237;48.590;8.854;2023-09-08T00:21:58;13.90;99.90
18225;DHT22;9237;48.590;8.854;2023-09-08T00:24:27;13.80;99.90
18225;DHT22;9237;48.590;8.854;2023-09-08T00:26:54;14.90;99.90
18225;DHT22;9237;48.590;8.854;2023-09-08T00:29:20;13.90;99.90
18225;DHT22;9237;48.590;8.854;2023-09-08T00:31:47;14.90;99.90
18225;DHT22;9237;48.590;8.854;2023-09-08T00:34:15;14.00;99.90
18225;DHT22;9237;48.590;8.854;2023-09-08T00:36:42;14.20;99.90
18225;DHT22;9237;48.590;8.854;2023-09-08T00:39:08;14.30;99.90
18225;DHT22;9237;48.590;8.854;2023-09-08T00:41:35;14.30;99.90
18225;DHT22;9237;48.590;8.854;2023-09-08T00:44:02;14.30;99.90
18225;DHT22;9237;48.590;8.854;2023-09-08T00:46:30;14.00;99.90
18225;DHT22;9237;48.590;8.854;2023-09-08T00:48:56;14.20;99.90
18225;DHT22;9237;48.590;8.854;2023-09-08T00:51:25;13.80;99.90
18225;DHT22;9237;48.590;8.854;2023-09-08T00:53:52;13.60;99.90
18225;DHT22;9237;48.590;8.854;2023-09-08T00:56:19;14.20;99.90
18225;DHT22;9237;48.590;8.854;2023-09-08T00:58:46;13.50;99.90
18225;DHT22;9237;48.590;8.854;2023-09-08T01:01:13;13.50;99.90
18225;DHT22;9237;48.590;8.854;2023-09-08T01:03:40;13.50;99.90
18225;DHT22;9237;48.590;8.854;2023-09-08T01:06:07;13.50;99.90
18225;DHT22;9237;48.590;8.854;2023-09-08T01:08:36;13.50;99.90
18225;DHT22;9237;48.590;8.854;2023-09-08T01:11:03;13.40;99.90
18225;DHT22;9237;48.590;8.854;2023-09-08T01:13:30;13.30;99.90
18225;DHT22;9237;48.590;8.854;2023-09-08T01:15:56;13.30;99.90
18225;DHT22;9237;48.590;8.854;2023-09-08T01:18:23;13.30;99.90
18225;DHT22;9237;48.590;8.854;2023-09-08T01:21:08;13.30;99.90
18225;DHT22;9237;48.590;8.854;2023-09-08T01:23:54;13.20;99.90
18225;DHT22;9237;48.590;8.854;2023-09-08T01:26:28;13.20;99.90
18225;DHT22;9237;48.590;8.854;2023-09-08T01:28:57;13.20;99.90
18225;DHT22;9237;48.590;8.854;2023-09-08T01:31:25;13.20;99.90
18225;DHT22;9237;48.590;8.854;2023-09-08T01:33:52;14.20;99.90
18225;DHT22;9237;48.590;8.854;2023-09-08T01:36:18;13.20;99.90
18225;DHT22;9237;48.590;8.854;2023-09-08T01:38:45;13.10;99.90
18225;DHT22;9237;48.590;8.854;2023-09-08T01:41:12;13.10;99.90
18225;DHT22;9237;48.590;8.854;2023-09-08T01:43:40;13.00;99.90
18225;DHT22;9237;48.590;8.854;2023-09-08T01:46:07;13.00;99.90
18225;DHT22;9237;48.590;8.854;2023-09-08T01:48:33;13.00;99.90
18225;DHT22;9237;48.590;8.854;2023-09-08T01:51:00;12.90;99.90
18225;DHT22;9237;48.590;8.854;2023-09-08T01:53:27;12.90;99.90
18225;DHT22;9237;48.590;8.854;2023-09-08T01:55:53;12.90;99.90
18225;DHT22;9237;48.590;8.854;2023-09-08T01:58:20;13.70;99.90
18225;DHT22;9237;48.590;8.854;2023-09-08T02:00:49;13.00;99.90
18225;DHT22;9237;48.590;8.854;2023-09-08T02:03:17;13.00;99.90
18225;DHT22;9237;48.590;8.854;2023-09-08T02:05:45;12.90;99.90
18225;DHT22;9237;48.590;8.854;2023-09-08T02:08:11;12.90;99.90
18225;DHT22;9237;48.590;8.854;2023-09-08T02:10:40;12.80;99.90
18225;DHT22;9237;48.590;8.854;2023-09-08T02:13:07;12.70;99.90
18225;DHT22;9237;48.590;8.854;2023-09-08T02:15:35;12.70;99.90
18225;DHT22;9237;48.590;8.854;2023-09-08T02:18:06;12.80;99.90
18225;DHT22;9237;48.590;8.854;2023-09-08T02:20:33;12.80;99.90
18225;DHT22;9237;48.590;8.854;2023-09-08T02:23:05;12.60;99.90
18225;DHT22;9237;48.590;8.854;2023-09-08T02:25:32;12.50;99.90
18225;DHT22;9237;48.590;8.854;2023-09-08T02:27:58;12.60;99.90
18225;DHT22;9237;48.590;8.854;2023-09-08T02:30:25;12.60;99.90
18225;DHT22;9237;48.590;8.854;2023-09-08T02:32:52;12.50;99.90
18225;DHT22;9237;48.590;8.854;2023-09-08T02:35:22;12.50;99.90
18225;DHT22;9237;48.590;8.854;2023-09-08T02:37:49;12.50;99.90
18225;DHT22;9237;48.590;8.854;2023-09-08T02:40:16;12.60;99.90
18225;DHT22;9237;48.590;8.854;2023-09-08T02:42:43;12.70;99.90
18225;DHT22;9237;48.590;8.854;2023-09-08T02:45:10;12.80;99.90
18225;DHT22;9237;48.590;8.854;2023-09-08T02:47:37;12.80;99.90
18225;DHT22;9237;48.590;8.854;2023-09-08T02:50:04;12.80;99.90
18225;DHT22;9237;48.590;8.854;2023-09-08T02:52:32;12.70;99.90
18225;DHT22;9237;48.590;8.854;2023-09-08T02:54:59;12.60;99.90
18225;DHT22;9237;48.590;8.854;2023-09-08T02:57:26;12.60;99.90
18225;DHT22;9237;48.590;8.854;2023-09-08T02:59:53;12.40;99.90
18225;DHT22;9237;48.590;8.854;2023-09-08T03:02:21;12.30;99.90
18225;DHT22;9237;48.590;8.854;2023-09-08T03:04:48;12.20;99.90
18225;DHT22;9237;48.590;8.854;2023-09-08T03:07:15;12.20;99.90
18225;DHT22;9237;48.590;8.854;2023-09-08T03:09:43;13.20;99.90
18225;DHT22;9237;48.590;8.854;2023-09-08T03:12:10;12.30;99.90
18225;DHT22;9237;48.590;8.854;2023-09-08T03:14:36;12.20;99.90
18225;DHT22;9237;48.590;8.854;2023-09-08T03:17:03;12.10;99.90
18225;DHT22;9237;48.590;8.854;2023-09-08T03:19:30;12.20;99.90
18225;DHT22;9237;48.590;8.854;2023-09-08T03:21:57;12.10;99.90
18225;DHT22;9237;48.590;8.854;2023-09-08T03:24:24;12.20;99.90
18225;DHT22;9237;48.590;8.854;2023-09-08T03:26:52;12.20;99.90
18225;DHT22;9237;48.590;8.854;2023-09-08T03:29:19;12.10;99.90
18225;DHT22;9237;48.590;8.854;2023-09-08T03:31:46;12.00;99.90
18225;DHT22;9237;48.590;8.854;2023-09-08T03:34:12;12.00;99.90
18225;DHT22;9237;48.590;8.854;2023-09-08T03:36:39;12.00;99.90
18225;DHT22;9237;48.590;8.854;2023-09-08T03:39:06;12.00;99.90
18225;DHT22;9237;48.590;8.854;2023-09-08T03:41:34;12.70;99.90
18225;DHT22;9237;48.590;8.854;2023-09-08T03:44:03;11.90;99.90
18225;DHT22;9237;48.590;8.854;2023-09-08T03:46:30;12.00;99.90
18225;DHT22;9237;48.590;8.854;2023-09-08T03:48:56;12.00;99.90
18225;DHT22;9237;48.590;8.854;2023-09-08T03:51:26;12.10;99.90
18225;DHT22;9237;48.590;8.854;2023-09-08T03:53:53;12.20;99.90
18225;DHT22;9237;48.590;8.854;2023-09-08T03:56:20;12.20;99.90
18225;DHT22;9237;48.590;8.854;2023-09-08T03:58:47;12.20;99.90
18225;DHT22;9237;48.590;8.854;2023-09-08T04:01:15;12.30;99.90
18225;DHT22;9237;48.590;8.854;2023-09-08T04:03:42;12.30;99.90
18225;DHT22;9237;48.590;8.854;2023-09-08T04:06:09;12.20;99.90
18225;DHT22;9237;48.590;8.854;2023-09-08T04:08:36;12.00;99.90
18225;DHT22;9237;48.590;8.854;2023-09-08T04:11:03;11.90;99.90
18225;DHT22;9237;48.590;8.854;2023-09-08T04:13:30;11.80;99.90
18225;DHT22;9237;48.590;8.854;2023-09-08T04:15:56;11.70;99.90
18225;DHT22;9237;48.590;8.854;2023-09-08T04:18:24;12.60;99.90
18225;DHT22;9237;48.590;8.854;2023-09-08T04:20:51;11.80;99.90
18225;DHT22;9237;48.590;8.854;2023-09-08T04:23:18;11.90;99.90
18225;DHT22;9237;48.590;8.854;2023-09-08T04:25:45;11.80;99.90
18225;DHT22;9237;48.590;8.854;2023-09-08T04:28:12;11.90;99.90
18225;DHT22;9237;48.590;8.854;2023-09-08T04:30:39;11.90;99.90
18225;DHT22;9237;48.590;8.854;2023-09-08T04:33:06;11.90;99.90
18225;DHT22;9237;48.590;8.854;2023-09-08T04:35:34;11.90;99.90
18225;DHT22;9237;48.590;8.854;2023-09-08T04:38:00;12.00;99.90
18225;DHT22;9237;48.590;8.854;2023-09-08T04:40:27;12.00;99.90
18225;DHT22;9237;48.590;8.854;2023-09-08T04:43:07;12.00;99.90
18225;DHT22;9237;48.590;8.854;2023-09-08T04:45:41;12.00;99.90
18225;DHT22;9237;48.590;8.854;2023-09-08T04:48:08;11.90;99.90
18225;DHT22;9237;48.590;8.854;2023-09-08T04:50:36;11.80;99.90
18225;DHT22;9237;48.590;8.854;2023-09-08T04:53:03;11.80;99.90
18225;DHT22;9237;48.590;8.854;2023-09-08T04:55:30;11.70;99.90
18225;DHT22;9237;48.590;8.854;2023-09-08T04:57:56;11.70;99.90
18225;DHT22;9237;48.590;8.854;2023-09-08T05:00:23;11.70;99.90
18225;DHT22;9237;48.590;8.854;2023-09-08T05:02:50;11.60;99.90
18225;DHT22;9237;48.590;8.854;2023-09-08T05:05:16;11.60;99.90
18225;DHT22;9237;48.590;8.854;2023-09-08T05:07:45;11.60;99.90
18225;DHT22;9237;48.590;8.854;2023-09-08T05:10:12;11.60;99.90
18225;DHT22;9237;48.590;8.854;2023-09-08T05:12:38;11.60;99.90
18225;DHT22;9237;48.590;8.854;2023-09-08T05:15:06;11.60;99.90
18225;DHT22;9237;48.590;8.854;2023-09-08T05:17:40;11.60;99.90
18225;DHT22;9237;48.590;8.854;2023-09-08T05:20:07;11.70;99.90
18225;DHT22;9237;48.590;8.854;2023-09-08T05:22:34;11.70;99.90
18225;DHT22;9237;48.590;8.854;2023-09-08T05:25:03;11.70;99.90
18225;DHT22;9237;48.590;8.854;2023-09-08T05:27:30;11.90;99.90
18225;DHT22;9237;48.590;8.854;2023-09-08T05:29:57;12.00;99.90
18225;DHT22;9237;48.590;8.854;2023-09-08T05:32:24;12.30;99.90
18225;DHT22;9237;48.590;8.854;2023-09-08T05:34:50;12.10;99.90
18225;DHT22;9237;48.590;8.854;2023-09-08T05:37:17;12.20;99.90
18225;DHT22;9237;48.590;8.854;2023-09-08T05:39:44;12.20;99.90
18225;DHT22;9237;48.590;8.854;2023-09-08T05:42:12;12.40;99.90
18225;DHT22;9237;48.590;8.854;2023-09-08T05:44:39;12.90;99.90
18225;DHT22;9237;48.590;8.854;2023-09-08T05:47:05;13.20;99.90
18225;DHT22;9237;48.590;8.854;2023-09-08T05:49:32;13.50;99.90
18225;DHT22;9237;48.590;8.854;2023-09-08T05:51:59;13.50;99.90
18225;DHT22;9237;48.590;8.854;2023-09-08T05:54:25;14.20;99.90
18225;DHT22;9237;48.590;8.854;2023-09-08T05:56:54;13.90;99.90
18225;DHT22;9237;48.590;8.854;2023-09-08T05:59:22;14.10;99.90
18225;DHT22;9237;48.590;8.854;2023-09-08T06:01:49;14.40;99.90
18225;DHT22;9237;48.590;8.854;2023-09-08T06:04:16;14.50;99.90
18225;DHT22;9237;48.590;8.854;2023-09-08T06:06:42;14.80;99.90
18225;DHT22;9237;48.590;8.854;2023-09-08T06:09:09;15.00;99.90
18225;DHT22;9237;48.590;8.854;2023-09-08T06:11:37;15.40;99.90
18225;DHT22;9237;48.590;8.854;2023-09-08T06:14:04;15.80;99.90
18225;DHT22;9237;48.590;8.854;2023-09-08T06:16:32;16.20;99.90
18225;DHT22;9237;48.590;8.854;2023-09-08T06:18:59;16.60;99.90
18225;DHT22;9237;48.590;8.854;2023-09-08T06:21:26;17.00;99.90
18225;DHT22;9237;48.590;8.854;2023-09-08T06:23:52;17.40;99.90
18225;DHT22;9237;48.590;8.854;2023-09-08T06:26:19;17.70;99.90
18225;DHT22;9237;48.590;8.854;2023-09-08T06:28:46;18.00;99.90
18225;DHT22;9237;48.590;8.854;2023-09-08T06:31:12;18.20;99.90
18225;DHT22;9237;48.590;8.854;2023-09-08T06:33:41;18.50;99.90
18225;DHT22;9237;48.590;8.854;2023-09-08T06:36:09;18.60;99.90
18225;DHT22;9237;48.590;8.854;2023-09-08T06:38:35;18.80;99.90
18225;DHT22;9237;48.590;8.854;2023-09-08T06:41:08;18.80;99.90
18225;DHT22;9237;48.590;8.854;2023-09-08T06:43:35;18.80;99.90
18225;DHT22;9237;48.590;8.854;2023-09-08T06:46:02;18.80;99.90
18225;DHT22;9237;48.590;8.854;2023-09-08T06:48:29;18.70;99.90
18225;DHT22;9237;48.590;8.854;2023-09-08T06:50:58;18.80;99.90
18225;DHT22;9237;48.590;8.854;2023-09-08T06:53:25;18.90;99.90
18225;DHT22;9237;48.590;8.854;2023-09-08T06:55:51;19.10;99.90
18225;DHT22;9237;48.590;8.854;2023-09-08T06:58:18;19.10;99.90
18225;DHT22;9237;48.590;8.854;2023-09-08T07:00:45;19.20;99.90
18225;DHT22;9237;48.590;8.854;2023-09-08T07:03:11;19.20;99.90
18225;DHT22;9237;48.590;8.854;2023-09-08T07:05:39;19.50;99.90
18225;DHT22;9237;48.590;8.854;2023-09-08T07:08:08;19.60;99.90
18225;DHT22;9237;48.590;8.854;2023-09-08T07:10:34;19.80;99.90
18225;DHT22;9237;48.590;8.854;2023-09-08T07:13:01;20.20;99.90
18225;DHT22;9237;48.590;8.854;2023-09-08T07:15:28;20.50;99.90
18225;DHT22;9237;48.590;8.854;2023-09-08T07:17:55;20.80;99.90
18225;DHT22;9237;48.590;8.854;2023-09-08T07:20:22;21.10;99.90
18225;DHT22;9237;48.590;8.854;2023-09-08T07:22:48;21.40;99.90
18225;DHT22;9237;48.590;8.854;2023-09-08T07:25:16;21.60;99.90
18225;DHT22;9237;48.590;8.854;2023-09-08T07:27:43;21.80;99.90
18225;DHT22;9237;48.590;8.854;2023-09-08T07:30:10;22.00;99.90
18225;DHT22;9237;48.590;8.854;2023-09-08T07:32:37;22.20;99.90
18225;DHT22;9237;48.590;8.854;2023-09-08T07:35:05;22.50;99.90
18225;DHT22;9237;48.590;8.854;2023-09-08T07:37:39;22.60;99.90
18225;DHT22;9237;48.590;8.854;2023-09-08T07:40:07;23.00;99.90
18225;DHT22;9237;48.590;8.854;2023-09-08T07:42:35;23.30;99.90
18225;DHT22;9237;48.590;8.854;2023-09-08T07:45:02;23.10;99.90
18225;DHT22;9237;48.590;8.854;2023-09-08T07:47:29;23.40;99.90
18225;DHT22;9237;48.590;8.854;2023-09-08T07:50:17;23.80;99.90
18225;DHT22;9237;48.590;8.854;2023-09-08T07:52:45;23.80;99.90
18225;DHT22;9237;48.590;8.854;2023-09-08T07:55:12;23.60;99.90
18225;DHT22;9237;48.590;8.854;2023-09-08T07:57:41;24.00;99.90
18225;DHT22;9237;48.590;8.854;2023-09-08T08:00:09;24.20;99.90
18225;DHT22;9237;48.590;8.854;2023-09-08T08:02:37;24.10;99.90
18225;DHT22;9237;48.590;8.854;2023-09-08T08:05:04;24.60;99.90
18225;DHT22;9237;48.590;8.854;2023-09-08T08:07:32;24.80;99.90
18225;DHT22;9237;48.590;8.854;2023-09-08T08:09:58;25.20;99.90
18225;DHT22;9237;48.590;8.854;2023-09-08T08:12:26;25.40;99.90
18225;DHT22;9237;48.590;8.854;2023-09-08T08:14:54;25.70;99.90
18225;DHT22;9237;48.590;8.854;2023-09-08T08:17:20;26.10;99.90
18225;DHT22;9237;48.590;8.854;2023-09-08T08:19:47;26.20;99.90
18225;DHT22;9237;48.590;8.854;2023-09-08T08:22:14;25.60;99.90
18225;DHT22;9237;48.590;8.854;2023-09-08T08:24:41;25.60;99.90
18225;DHT22;9237;48.590;8.854;2023-09-08T08:27:07;26.00;99.90
18225;DHT22;9237;48.590;8.854;2023-09-08T08:29:34;26.40;99.90
18225;DHT22;9237;48.590;8.854;2023-09-08T08:32:02;26.30;99.90
18225;DHT22;9237;48.590;8.854;2023-09-08T08:34:29;26.40;99.90
18225;DHT22;9237;48.590;8.854;2023-09-08T08:36:56;26.80;99.90
18225;DHT22;9237;48.590;8.854;2023-09-08T08:39:23;27.10;99.90
18225;DHT22;9237;48.590;8.854;2023-09-08T08:41:49;26.90;99.90
18225;DHT22;9237;48.590;8.854;2023-09-08T08:44:17;27.00;99.90
18225;DHT22;9237;48.590;8.854;2023-09-08T08:46:46;27.40;99.90
18225;DHT22;9237;48.590;8.854;2023-09-08T08:49:15;27.70;99.90
18225;DHT22;9237;48.590;8.854;2023-09-08T08:51:42;27.90;99.90
18225;DHT22;9237;48.590;8.854;2023-09-08T08:54:11;26.50;99.90
18225;DHT22;9237;48.590;8.854;2023-09-08T08:56:39;26.70;99.90
18225;DHT22;9237;48.590;8.854;2023-09-08T08:59:06;27.40;99.90
18225;DHT22;9237;48.590;8.854;2023-09-08T09:01:33;28.00;99.90
18225;DHT22;9237;48.590;8.854;2023-09-08T09:04:00;28.40;99.90
18225;DHT22;9237;48.590;8.854;2023-09-08T09:06:29;28.80;99.90
18225;DHT22;9237;48.590;8.854;2023-09-08T09:08:55;29.00;99.90
18225;DHT22;9237;48.590;8.854;2023-09-08T09:11:22;29.40;99.90
18225;DHT22;9237;48.590;8.854;2023-09-08T09:13:49;29.60;99.90
18225;DHT22;9237;48.590;8.854;2023-09-08T09:16:16;29.30;99.90
18225;DHT22;9237;48.590;8.854;2023-09-08T09:18:54;29.60;99.90
18225;DHT22;9237;48.590;8.854;2023-09-08T09:21:22;30.20;99.90
18225;DHT22;9237;48.590;8.854;2023-09-08T09:23:50;30.30;99.90
18225;DHT22;9237;48.590;8.854;2023-09-08T09:26:23;30.30;99.90
18225;DHT22;9237;48.590;8.854;2023-09-08T09:28:50;30.60;99.90
18225;DHT22;9237;48.590;8.854;2023-09-08T09:31:22;30.80;99.90
18225;DHT22;9237;48.590;8.854;2023-09-08T09:34:01;30.20;99.90
18225;DHT22;9237;48.590;8.854;2023-09-08T09:36:29;30.00;99.90
18225;DHT22;9237;48.590;8.854;2023-09-08T09:38:59;30.00;99.90
18225;DHT22;9237;48.590;8.854;2023-09-08T09:41:28;30.60;99.90
18225;DHT22;9237;48.590;8.854;2023-09-08T09:43:56;31.20;99.90
18225;DHT22;9237;48.590;8.854;2023-09-08T09:46:23;31.40;99.90
18225;DHT22;9237;48.590;8.854;2023-09-08T09:48:51;31.80;99.90
18225;DHT22;9237;48.590;8.854;2023-09-08T09:51:19;31.90;99.90
18225;DHT22;9237;48.590;8.854;2023-09-08T09:53:46;31.60;99.30
18225;DHT22;9237;48.590;8.854;2023-09-08T09:56:15;31.90;98.60
18225;DHT22;9237;48.590;8.854;2023-09-08T09:58:44;32.20;97.90
18225;DHT22;9237;48.590;8.854;2023-09-08T10:01:11;32.40;97.10
18225;DHT22;9237;48.590;8.854;2023-09-08T10:03:39;32.10;95.90
18225;DHT22;9237;48.590;8.854;2023-09-08T10:06:06;32.50;96.10
18225;DHT22;9237;48.590;8.854;2023-09-08T10:08:34;32.80;94.90
18225;DHT22;9237;48.590;8.854;2023-09-08T10:11:06;32.60;93.60
18225;DHT22;9237;48.590;8.854;2023-09-08T10:13:39;33.00;93.20
18225;DHT22;9237;48.590;8.854;2023-09-08T10:19:29;33.20;91.90
18225;DHT22;9237;48.590;8.854;2023-09-08T10:21:59;33.60;91.20
18225;DHT22;9237;48.590;8.854;2023-09-08T10:24:27;33.70;90.00
18225;DHT22;9237;48.590;8.854;2023-09-08T10:26:58;33.10;87.90
18225;DHT22;9237;48.590;8.854;2023-09-08T10:29:29;33.30;87.90
18225;DHT22;9237;48.590;8.854;2023-09-08T10:31:57;33.20;86.30
18225;DHT22;9237;48.590;8.854;2023-09-08T10:34:24;33.30;86.70
18225;DHT22;9237;48.590;8.854;2023-09-08T10:36:52;33.70;84.80
18225;DHT22;9237;48.590;8.854;2023-09-08T10:39:28;33.80;83.80
18225;DHT22;9237;48.590;8.854;2023-09-08T10:42:20;34.00;82.60
18225;DHT22;9237;48.590;8.854;2023-09-08T10:45:00;34.00;81.60
18225;DHT22;9237;48.590;8.854;2023-09-08T10:47:39;33.30;79.80
18225;DHT22;9237;48.590;8.854;2023-09-08T10:50:15;33.70;79.40
18225;DHT22;9237;48.590;8.854;2023-09-08T10:52:42;33.80;79.70
18225;DHT22;9237;48.590;8.854;2023-09-08T10:55:09;33.80;80.00
18225;DHT22;9237;48.590;8.854;2023-09-08T10:57:37;34.20;78.20
18225;DHT22;9237;48.590;8.854;2023-09-08T11:00:06;34.20;76.90
18225;DHT22;9237;48.590;8.854;2023-09-08T11:02:38;34.40;76.80
18225;DHT22;9237;48.590;8.854;2023-09-08T11:05:07;34.50;75.90
18225;DHT22;9237;48.590;8.854;2023-09-08T11:07:35;34.40;73.30
18225;DHT22;9237;48.590;8.854;2023-09-08T11:10:03;34.40;74.20
18225;DHT22;9237;48.590;8.854;2023-09-08T11:12:30;34.80;72.90
18225;DHT22;9237;48.590;8.854;2023-09-08T11:14:57;35.30;74.50
18225;DHT22;9237;48.590;8.854;2023-09-08T11:17:27;35.20;71.20
18225;DHT22;9237;48.590;8.854;2023-09-08T11:19:54;35.10;69.70
18225;DHT22;9237;48.590;8.854;2023-09-08T11:22:22;34.70;70.20
18225;DHT22;9237;48.590;8.854;2023-09-08T11:24:50;34.80;68.40
18225;DHT22;9237;48.590;8.854;2023-09-08T11:27:18;34.80;70.10
18225;DHT22;9237;48.590;8.854;2023-09-08T11:29:45;34.80;68.80
18225;DHT22;9237;48.590;8.854;2023-09-08T11:32:12;34.80;68.30
18225;DHT22;9237;48.590;8.854;2023-09-08T11:34:40;34.00;67.20
18225;DHT22;9237;48.590;8.854;2023-09-08T11:37:08;32.20;69.10
18225;DHT22;9237;48.590;8.854;2023-09-08T11:39:37;31.70;70.50
18225;DHT22;9237;48.590;8.854;2023-09-08T11:42:05;31.40;72.00
18225;DHT22;9237;48.590;8.854;2023-09-08T11:44:32;31.50;73.10
18225;DHT22;9237;48.590;8.854;2023-09-08T11:46:58;31.60;71.30
18225;DHT22;9237;48.590;8.854;2023-09-08T11:49:25;31.60;71.10
18225;DHT22;9237;48.590;8.854;2023-09-08T11:51:55;31.60;70.60
18225;DHT22;9237;48.590;8.854;2023-09-08T11:54:22;30.70;71.70
18225;DHT22;9237;48.590;8.854;2023-09-08T11:56:49;30.10;72.80
18225;DHT22;9237;48.590;8.854;2023-09-08T11:59:16;30.60;73.10
18225;DHT22;9237;48.590;8.854;2023-09-08T12:01:43;30.50;73.20
18225;DHT22;9237;48.590;8.854;2023-09-08T12:04:17;30.50;74.00
18225;DHT22;9237;48.590;8.854;2023-09-08T12:06:44;30.10;73.20
18225;DHT22;9237;48.590;8.854;2023-09-08T12:09:12;30.00;74.80
18225;DHT22;9237;48.590;8.854;2023-09-08T12:11:40;30.10;73.80
18225;DHT22;9237;48.590;8.854;2023-09-08T12:14:10;30.10;73.10
18225;DHT22;9237;48.590;8.854;2023-09-08T12:16:36;28.80;75.00
18225;DHT22;9237;48.590;8.854;2023-09-08T12:19:03;28.90;76.50
18225;DHT22;9237;48.590;8.854;2023-09-08T12:21:31;29.00;74.90
18225;DHT22;9237;48.590;8.854;2023-09-08T12:23:58;29.50;75.80
18225;DHT22;9237;48.590;8.854;2023-09-08T12:26:26;29.70;72.70
18225;DHT22;9237;48.590;8.854;2023-09-08T12:28:55;30.40;72.10
18225;DHT22;9237;48.590;8.854;2023-09-08T12:31:22;30.80;68.70
18225;DHT22;9237;48.590;8.854;2023-09-08T12:33:49;30.90;69.60
18225;DHT22;9237;48.590;8.854;2023-09-08T12:36:17;32.40;64.90
18225;DHT22;9237;48.590;8.854;2023-09-08T12:38:47;33.30;63.00
18225;DHT22;9237;48.590;8.854;2023-09-08T12:41:15;33.90;61.80
18225;DHT22;9237;48.590;8.854;2023-09-08T12:43:43;34.00;61.20
18225;DHT22;9237;48.590;8.854;2023-09-08T12:46:09;34.40;60.40
18225;DHT22;9237;48.590;8.854;2023-09-08T12:48:36;33.40;60.30
18225;DHT22;9237;48.590;8.854;2023-09-08T12:51:03;34.00;60.10
18225;DHT22;9237;48.590;8.854;2023-09-08T12:53:34;35.00;58.90
18225;DHT22;9237;48.590;8.854;2023-09-08T12:56:01;34.70;57.30
18225;DHT22;9237;48.590;8.854;2023-09-08T12:58:28;34.70;57.70
18225;DHT22;9237;48.590;8.854;2023-09-08T13:00:56;35.50;57.60
18225;DHT22;9237;48.590;8.854;2023-09-08T13:03:23;36.50;55.40
18225;DHT22;9237;48.590;8.854;2023-09-08T13:05:50;36.50;54.50
18225;DHT22;9237;48.590;8.854;2023-09-08T13:08:16;36.00;54.00
18225;DHT22;9237;48.590;8.854;2023-09-08T13:10:43;35.70;54.60
18225;DHT22;9237;48.590;8.854;2023-09-08T13:13:10;34.80;55.40
18225;DHT22;9237;48.590;8.854;2023-09-08T13:15:36;35.20;55.90
18225;DHT22;9237;48.590;8.854;2023-09-08T13:18:05;35.80;55.20
18225;DHT22;9237;48.590;8.854;2023-09-08T13:20:32;35.80;55.30
18225;DHT22;9237;48.590;8.854;2023-09-08T13:22:58;35.50;54.00
18225;DHT22;9237;48.590;8.854;2023-09-08T13:25:25;35.30;54.70
18225;DHT22;9237;48.590;8.854;2023-09-08T13:27:52;34.20;56.70
18225;DHT22;9237;48.590;8.854;2023-09-08T13:30:19;34.50;56.20
18225;DHT22;9237;48.590;8.854;2023-09-08T13:32:47;34.40;57.20
18225;DHT22;9237;48.590;8.854;2023-09-08T13:35:15;34.20;57.20
18225;DHT22;9237;48.590;8.854;2023-09-08T13:37:42;34.30;55.90
18225;DHT22;9237;48.590;8.854;2023-09-08T13:40:09;34.50;56.20
18225;DHT22;9237;48.590;8.854;2023-09-08T13:42:38;34.10;55.60
18225;DHT22;9237;48.590;8.854;2023-09-08T13:45:05;34.30;56.40
18225;DHT22;9237;48.590;8.854;2023-09-08T13:47:32;33.70;56.60
18225;DHT22;9237;48.590;8.854;2023-09-08T13:50:02;33.90;56.70
18225;DHT22;9237;48.590;8.854;2023-09-08T13:52:30;33.00;57.50
18225;DHT22;9237;48.590;8.854;2023-09-08T13:54:57;33.20;58.70
18225;DHT22;9237;48.590;8.854;2023-09-08T13:57:23;33.60;58.10
18225;DHT22;9237;48.590;8.854;2023-09-08T13:59:51;34.60;55.50
18225;DHT22;9237;48.590;8.854;2023-09-08T14:02:19;33.90;57.10
18225;DHT22;9237;48.590;8.854;2023-09-08T14:04:46;34.90;55.70
18225;DHT22;9237;48.590;8.854;2023-09-08T14:07:13;35.80;54.90
18225;DHT22;9237;48.590;8.854;2023-09-08T14:09:41;34.80;55.60
18225;DHT22;9237;48.590;8.854;2023-09-08T14:12:08;32.90;57.60
18225;DHT22;9237;48.590;8.854;2023-09-08T14:14:35;32.40;58.40
18225;DHT22;9237;48.590;8.854;2023-09-08T14:17:02;32.60;59.10
18225;DHT22;9237;48.590;8.854;2023-09-08T14:19:29;34.30;56.90
18225;DHT22;9237;48.590;8.854;2023-09-08T14:21:55;34.60;54.10
18225;DHT22;9237;48.590;8.854;2023-09-08T14:24:23;34.00;55.70
18225;DHT22;9237;48.590;8.854;2023-09-08T14:26:51;34.00;56.00
18225;DHT22;9237;48.590;8.854;2023-09-08T14:29:18;34.10;55.70
18225;DHT22;9237;48.590;8.854;2023-09-08T14:31:45;34.20;54.90
18225;DHT22;9237;48.590;8.854;2023-09-08T14:34:11;33.10;56.20
18225;DHT22;9237;48.590;8.854;2023-09-08T14:36:38;33.60;55.70
18225;DHT22;9237;48.590;8.854;2023-09-08T14:39:05;33.30;56.00
18225;DHT22;9237;48.590;8.854;2023-09-08T14:41:32;33.30;56.20
18225;DHT22;9237;48.590;8.854;2023-09-08T14:44:00;34.40;55.90
18225;DHT22;9237;48.590;8.854;2023-09-08T14:46:27;34.50;53.90
18225;DHT22;9237;48.590;8.854;2023-09-08T14:48:53;34.60;54.80
18225;DHT22;9237;48.590;8.854;2023-09-08T14:51:20;34.20;54.50
18225;DHT22;9237;48.590;8.854;2023-09-08T14:53:47;33.70;55.40
18225;DHT22;9237;48.590;8.854;2023-09-08T14:56:14;33.70;55.20
18225;DHT22;9237;48.590;8.854;2023-09-08T14:58:40;33.30;56.10
18225;DHT22;9237;48.590;8.854;2023-09-08T15:01:09;32.50;58.40
18225;DHT22;9237;48.590;8.854;2023-09-08T15:03:37;33.40;56.90
18225;DHT22;9237;48.590;8.854;2023-09-08T15:06:04;33.60;56.50
18225;DHT22;9237;48.590;8.854;2023-09-08T15:08:31;33.70;55.60
18225;DHT22;9237;48.590;8.854;2023-09-08T15:10:58;33.50;56.00
18225;DHT22;9237;48.590;8.854;2023-09-08T15:13:25;33.50;57.10
18225;DHT22;9237;48.590;8.854;2023-09-08T15:15:52;33.20;57.40
18225;DHT22;9237;48.590;8.854;2023-09-08T15:18:20;32.70;58.70
18225;DHT22;9237;48.590;8.854;2023-09-08T15:20:53;33.30;58.80
18225;DHT22;9237;48.590;8.854;2023-09-08T15:23:20;33.70;57.70
18225;DHT22;9237;48.590;8.854;2023-09-08T15:25:54;33.90;57.50
18225;DHT22;9237;48.590;8.854;2023-09-08T15:28:21;33.30;57.80
18225;DHT22;9237;48.590;8.854;2023-09-08T15:30:48;33.30;58.30
18225;DHT22;9237;48.590;8.854;2023-09-08T15:33:15;33.20;58.50
18225;DHT22;9237;48.590;8.854;2023-09-08T15:35:43;32.90;58.40
18225;DHT22;9237;48.590;8.854;2023-09-08T15:38:10;33.20;58.70
18225;DHT22;9237;48.590;8.854;2023-09-08T15:40:38;33.20;58.60
18225;DHT22;9237;48.590;8.854;2023-09-08T15:43:05;33.50;58.20
18225;DHT22;9237;48.590;8.854;2023-09-08T15:45:32;33.40;58.30
18225;DHT22;9237;48.590;8.854;2023-09-08T15:47:58;33.10;58.00
18225;DHT22;9237;48.590;8.854;2023-09-08T15:50:25;32.90;58.80
18225;DHT22;9237;48.590;8.854;2023-09-08T15:52:54;32.00;60.80